createdAt,value
2023-03-10T00:01:40.215Z,5.87
2023-03-10T00:04:07.034Z,5.37
2023-03-10T00:06:37.514Z,5.70
2023-03-10T00:09:04.791Z,5.47
2023-03-10T00:11:31.481Z,5.43
2023-03-10T00:13:58.078Z,5.30
2023-03-10T00:16:30.893Z,6.00
2023-03-10T00:18:57.728Z,5.73
2023-03-10T00:21:32.247Z,5.93
2023-03-10T00:23:59.616Z,5.67
2023-03-10T00:26:28.168Z,5.70
2023-03-10T00:28:57.392Z,6.78
2023-03-10T00:31:27.303Z,6.47
2023-03-10T00:33:56.159Z,6.23
2023-03-10T00:36:29.930Z,6.07
2023-03-10T00:38:57.436Z,5.97
2023-03-10T00:41:26.507Z,6.10
2023-03-10T00:43:53.287Z,6.15
2023-03-10T00:46:20.849Z,6.10
2023-03-10T00:48:47.701Z,5.75
2023-03-10T00:51:14.358Z,5.70
2023-03-10T00:53:42.293Z,6.05
2023-03-10T00:56:21.543Z,6.00
2023-03-10T00:58:51.861Z,6.18
2023-03-10T01:01:30.666Z,6.03
2023-03-10T01:04:01.088Z,6.07
2023-03-10T01:06:28.042Z,5.57
2023-03-10T01:08:54.820Z,6.43
2023-03-10T01:11:24.794Z,5.85
2023-03-10T01:13:53.047Z,5.88
2023-03-10T01:16:22.166Z,6.05
2023-03-10T01:18:48.905Z,6.20
2023-03-10T01:21:19.006Z,5.93
2023-03-10T01:23:45.847Z,5.65
2023-03-10T01:26:12.756Z,5.85
2023-03-10T01:28:39.694Z,6.10
2023-03-10T01:31:09.149Z,6.07
2023-03-10T01:33:42.934Z,6.03
2023-03-10T01:36:11.351Z,6.03
2023-03-10T01:38:39.765Z,5.45
2023-03-10T01:41:06.923Z,5.43
2023-03-10T01:43:36.016Z,5.88
2023-03-10T01:46:02.695Z,5.30
2023-03-10T01:48:35.980Z,5.53
2023-03-10T01:51:03.757Z,5.50
2023-03-10T01:53:33.150Z,6.18
2023-03-10T01:56:03.174Z,5.93
2023-03-10T01:58:39.136Z,6.30
2023-03-10T02:01:06.908Z,6.10
2023-03-10T02:03:37.544Z,5.72
2023-03-10T02:06:12.478Z,6.40
2023-03-10T02:08:44.390Z,6.10
2023-03-10T02:11:12.091Z,5.90
2023-03-10T02:13:43.515Z,5.47
2023-03-10T02:16:10.544Z,5.68
2023-03-10T02:18:37.246Z,5.73
2023-03-10T02:21:21.444Z,5.82
2023-03-10T02:24:15.133Z,5.05
2023-03-10T02:26:50.569Z,5.93
2023-03-10T02:29:23.953Z,6.05
2023-03-10T02:31:51.580Z,5.88
2023-03-10T02:34:19.030Z,5.82
2023-03-10T02:36:48.463Z,5.80
2023-03-10T02:39:15.173Z,5.15
2023-03-10T02:41:45.606Z,5.28
2023-03-10T02:44:17.000Z,6.43
2023-03-10T02:46:45.805Z,5.90
2023-03-10T02:49:12.654Z,5.90
2023-03-10T02:51:45.257Z,5.47
2023-03-10T02:54:13.165Z,6.07
2023-03-10T02:56:40.890Z,5.57
2023-03-10T02:59:08.093Z,6.13
2023-03-10T03:01:35.100Z,6.18
2023-03-10T03:04:04.233Z,6.90
2023-03-10T03:06:30.911Z,6.07
2023-03-10T03:08:59.884Z,5.90
2023-03-10T03:11:26.695Z,6.30
2023-03-10T03:13:53.682Z,6.50
2023-03-10T03:16:20.544Z,6.87
2023-03-10T03:18:47.422Z,7.10
2023-03-10T03:21:18.303Z,6.32
2023-03-10T03:23:46.317Z,6.80
2023-03-10T03:26:19.755Z,7.00
2023-03-10T03:28:49.991Z,6.93
2023-03-10T03:31:23.474Z,7.05
2023-03-10T03:33:51.176Z,7.07
2023-03-10T03:36:18.646Z,6.47
2023-03-10T03:38:45.321Z,7.00
2023-03-10T03:41:15.086Z,7.18
2023-03-10T03:43:44.111Z,7.47
2023-03-10T03:46:10.796Z,6.97
2023-03-10T03:48:40.051Z,7.50
2023-03-10T03:51:06.903Z,7.43
2023-03-10T03:53:34.068Z,7.37
2023-03-10T03:56:03.101Z,6.57
2023-03-10T03:58:32.117Z,6.95
2023-03-10T04:01:01.161Z,6.72
2023-03-10T04:03:27.945Z,7.00
2023-03-10T04:05:57.123Z,6.43
2023-03-10T04:08:26.668Z,7.05
2023-03-10T04:10:55.155Z,7.65
2023-03-10T04:13:21.820Z,7.75
2023-03-10T04:15:50.981Z,7.25
2023-03-10T04:18:20.178Z,8.38
2023-03-10T04:20:49.364Z,7.28
2023-03-10T04:23:18.413Z,7.68
2023-03-10T04:25:45.182Z,7.10
2023-03-10T04:28:11.891Z,7.60
2023-03-10T04:30:42.188Z,8.27
2023-03-10T04:33:12.669Z,7.60
2023-03-10T04:35:44.076Z,8.50
2023-03-10T04:38:10.755Z,7.47
2023-03-10T04:40:37.607Z,7.75
2023-03-10T04:43:04.898Z,7.97
2023-03-10T04:45:33.957Z,7.07
2023-03-10T04:48:00.876Z,7.38
2023-03-10T04:50:27.686Z,7.35
2023-03-10T04:52:54.442Z,8.15
2023-03-10T04:55:21.156Z,8.23
2023-03-10T04:57:50.423Z,7.95
2023-03-10T05:00:17.470Z,6.85
2023-03-10T05:02:46.472Z,7.57
2023-03-10T05:05:13.149Z,7.45
2023-03-10T05:07:39.904Z,8.02
2023-03-10T05:10:07.229Z,8.07
2023-03-10T05:12:38.450Z,8.07
2023-03-10T05:15:05.777Z,8.00
2023-03-10T05:17:32.568Z,8.52
2023-03-10T05:19:59.216Z,7.80
2023-03-10T05:22:25.910Z,8.43
2023-03-10T05:24:52.572Z,9.07
2023-03-10T05:27:21.844Z,8.63
2023-03-10T05:29:48.905Z,8.45
2023-03-10T05:32:17.972Z,8.60
2023-03-10T05:34:44.826Z,8.40
2023-03-10T05:37:11.586Z,8.70
2023-03-10T05:39:38.407Z,8.98
2023-03-10T05:42:05.234Z,9.25
2023-03-10T05:44:32.033Z,8.43
2023-03-10T05:46:58.809Z,9.32
2023-03-10T05:49:25.698Z,8.05
2023-03-10T05:51:54.832Z,8.10
2023-03-10T05:54:26.381Z,8.43
2023-03-10T05:56:53.329Z,8.10
2023-03-10T05:59:20.151Z,8.65
2023-03-10T06:01:48.936Z,8.80
2023-03-10T06:04:15.709Z,8.68
2023-03-10T06:06:42.496Z,8.65
2023-03-10T06:09:09.128Z,8.32
2023-03-10T06:11:35.919Z,9.25
2023-03-10T06:14:04.800Z,9.18
2023-03-10T06:16:31.610Z,9.65
2023-03-10T06:18:58.583Z,8.77
2023-03-10T06:21:29.549Z,8.32
2023-03-10T06:23:56.575Z,8.75
2023-03-10T06:26:26.148Z,8.48
2023-03-10T06:28:55.236Z,9.05
2023-03-10T06:31:24.608Z,9.20
2023-03-10T06:33:53.526Z,7.80
2023-03-10T06:36:21.786Z,8.07
2023-03-10T06:38:49.250Z,8.18
2023-03-10T06:41:22.138Z,8.45
2023-03-10T06:43:51.579Z,8.98
2023-03-10T06:46:18.204Z,8.48
2023-03-10T06:48:45.339Z,8.55
2023-03-10T06:51:18.622Z,8.55
2023-03-10T06:53:46.103Z,7.80
2023-03-10T06:56:17.605Z,8.35
2023-03-10T06:58:47.247Z,8.57
2023-03-10T07:01:26.861Z,8.73
2023-03-10T07:03:54.292Z,8.23
2023-03-10T07:06:21.366Z,7.88
2023-03-10T07:08:48.064Z,8.85
2023-03-10T07:11:15.254Z,7.85
2023-03-10T07:13:42.193Z,8.48
2023-03-10T07:16:08.909Z,8.63
2023-03-10T07:18:35.499Z,8.15
2023-03-10T07:21:02.117Z,7.88
2023-03-10T07:23:31.165Z,7.93
2023-03-10T07:25:57.896Z,7.97
2023-03-10T07:28:25.803Z,7.68
2023-03-10T07:30:57.866Z,7.30
2023-03-10T07:33:24.460Z,7.35
2023-03-10T07:35:51.160Z,7.65
2023-03-10T07:38:22.525Z,7.07
2023-03-10T07:40:49.074Z,7.40
2023-03-10T07:43:15.659Z,7.53
2023-03-10T07:45:42.393Z,8.40
2023-03-10T07:48:08.982Z,8.80
2023-03-10T07:50:35.579Z,7.85
2023-03-10T07:53:04.415Z,8.60
2023-03-10T07:55:31.222Z,7.85
2023-03-10T07:58:02.275Z,8.25
2023-03-10T08:00:28.973Z,9.27
2023-03-10T08:02:55.907Z,10.73
2023-03-10T08:05:22.506Z,9.73
2023-03-10T08:07:49.144Z,8.57
2023-03-10T08:10:15.700Z,7.25
2023-03-10T08:12:44.734Z,7.60
2023-03-10T08:15:14.656Z,8.57
2023-03-10T08:17:41.314Z,8.23
2023-03-10T08:20:08.579Z,7.63
2023-03-10T08:22:37.812Z,7.80
2023-03-10T08:25:04.696Z,9.35
2023-03-10T08:27:33.685Z,8.95
2023-03-10T08:30:00.299Z,8.80
2023-03-10T08:32:29.321Z,8.77
2023-03-10T08:34:58.430Z,8.10
2023-03-10T08:37:25.114Z,7.38
2023-03-10T08:39:53.699Z,8.35
2023-03-10T08:42:20.280Z,7.90
2023-03-10T08:44:49.352Z,8.82
2023-03-10T08:47:18.258Z,8.13
2023-03-10T08:49:47.629Z,9.73
2023-03-10T08:52:16.010Z,9.18
2023-03-10T08:54:44.931Z,8.27
2023-03-10T08:57:11.516Z,9.02
2023-03-10T08:59:38.093Z,8.82
2023-03-10T09:02:05.003Z,9.75
2023-03-10T09:04:33.850Z,9.48
2023-03-10T09:07:00.476Z,8.35
2023-03-10T09:09:29.537Z,9.15
2023-03-10T09:11:58.677Z,8.25
2023-03-10T09:14:25.907Z,9.35
2023-03-10T09:16:52.512Z,8.90
2023-03-10T09:19:19.173Z,8.45
2023-03-10T09:21:45.778Z,8.18
2023-03-10T09:24:14.610Z,8.63
2023-03-10T09:26:44.884Z,8.50
2023-03-10T09:29:12.132Z,8.40
2023-03-10T09:31:39.675Z,7.75
2023-03-10T09:34:08.359Z,7.35
2023-03-10T09:36:38.388Z,6.93
2023-03-10T09:39:07.472Z,7.40
2023-03-10T09:42:05.117Z,8.73
2023-03-10T09:45:07.177Z,9.73
2023-03-10T09:47:59.542Z,7.70
2023-03-10T09:50:52.449Z,7.03
2023-03-10T09:53:43.692Z,6.45
2023-03-10T09:56:17.513Z,7.28
2023-03-10T09:59:14.392Z,6.25
2023-03-10T10:01:44.887Z,6.60
2023-03-10T10:04:15.872Z,7.20
2023-03-10T10:06:51.360Z,9.27
2023-03-10T10:09:46.685Z,7.20
2023-03-10T10:12:15.453Z,7.60
2023-03-10T10:14:55.124Z,6.65
2023-03-10T10:18:16.125Z,6.80
2023-03-10T10:21:02.787Z,6.35
2023-03-10T10:23:44.854Z,4.50
2023-03-10T10:26:24.021Z,2.83
2023-03-10T10:29:12.451Z,2.20
2023-03-10T10:31:39.183Z,1.95
2023-03-10T10:34:23.387Z,2.10
2023-03-10T10:36:55.368Z,2.08
2023-03-10T10:39:32.295Z,1.45
2023-03-10T10:42:28.617Z,1.48
2023-03-10T10:44:58.150Z,2.05
2023-03-10T10:47:46.902Z,1.70
2023-03-10T10:50:13.425Z,1.67
2023-03-10T10:52:40.273Z,1.50
2023-03-10T10:55:28.960Z,1.40
2023-03-10T10:58:03.543Z,1.45
2023-03-10T11:00:32.048Z,1.42
2023-03-10T11:03:01.479Z,1.65
2023-03-10T11:05:38.887Z,1.30
2023-03-10T11:08:42.983Z,1.50
2023-03-10T11:11:20.242Z,1.70
2023-03-10T11:14:18.030Z,0.98
2023-03-10T11:16:44.665Z,1.33
2023-03-10T11:19:20.963Z,1.67
2023-03-10T11:21:54.035Z,1.60
2023-03-10T11:24:32.107Z,4.88
2023-03-10T11:27:04.780Z,6.18
2023-03-10T11:30:05.254Z,5.97
2023-03-10T11:32:53.829Z,7.05
2023-03-10T11:35:35.027Z,6.53
2023-03-10T11:38:16.734Z,7.32
2023-03-10T11:40:57.501Z,7.07
2023-03-10T11:43:31.670Z,6.07
2023-03-10T11:46:03.691Z,5.32
2023-03-10T11:48:52.287Z,5.35
2023-03-10T11:51:28.121Z,6.30
2023-03-10T11:54:01.541Z,6.40
2023-03-10T11:56:30.744Z,6.82
2023-03-10T11:58:59.915Z,4.93
2023-03-10T12:01:31.020Z,5.60
2023-03-10T12:04:00.849Z,6.35
2023-03-10T12:06:44.795Z,6.45
2023-03-10T12:09:26.185Z,6.32
2023-03-10T12:11:54.355Z,5.30
2023-03-10T12:14:21.771Z,5.35
2023-03-10T12:16:49.222Z,4.18
2023-03-10T12:19:15.859Z,3.33
2023-03-10T12:21:42.397Z,3.70
2023-03-10T12:24:50.874Z,2.55
2023-03-10T12:27:17.505Z,2.80
2023-03-10T12:29:44.489Z,1.70
2023-03-10T12:32:47.402Z,1.65
2023-03-10T12:35:22.694Z,1.98
2023-03-10T12:37:51.491Z,2.00
2023-03-10T12:41:03.389Z,1.77
2023-03-10T12:43:51.628Z,1.60
2023-03-10T12:46:31.679Z,1.27
2023-03-10T12:49:28.603Z,1.40
2023-03-10T12:52:07.140Z,1.10
2023-03-10T12:55:15.821Z,1.20
2023-03-10T12:57:45.148Z,1.50
2023-03-10T13:00:30.231Z,1.50
2023-03-10T13:03:07.528Z,1.13
2023-03-10T13:05:38.871Z,0.73
2023-03-10T13:08:40.046Z,0.93
2023-03-10T13:11:18.677Z,1.20
2023-03-10T13:13:50.097Z,1.40
2023-03-10T13:16:19.237Z,1.05
2023-03-10T13:18:53.184Z,0.88
2023-03-10T13:21:30.584Z,1.20
2023-03-10T13:23:59.271Z,0.90
2023-03-10T13:26:27.007Z,1.23
2023-03-10T13:29:02.131Z,0.77
2023-03-10T13:31:34.550Z,0.80
2023-03-10T13:34:18.814Z,0.70
2023-03-10T13:36:45.356Z,1.10
2023-03-10T13:39:27.750Z,1.00
2023-03-10T13:41:58.377Z,1.58
2023-03-10T13:44:28.217Z,1.52
2023-03-10T13:47:01.096Z,1.40
2023-03-10T13:49:32.408Z,1.70
2023-03-10T13:52:06.721Z,1.58
2023-03-10T13:54:41.104Z,1.90
2023-03-10T13:57:13.759Z,0.65
2023-03-10T13:59:40.614Z,0.50
2023-03-10T14:02:19.140Z,1.00
2023-03-10T14:04:53.566Z,0.55
2023-03-10T14:07:24.342Z,1.02
2023-03-10T14:10:06.082Z,0.98
2023-03-10T14:12:44.848Z,1.27
2023-03-10T14:15:14.355Z,1.27
2023-03-10T14:17:42.844Z,1.30
2023-03-10T14:20:11.221Z,1.10
2023-03-10T14:22:44.743Z,1.30
2023-03-10T14:25:18.581Z,0.80
2023-03-10T14:28:11.695Z,0.70
2023-03-10T14:30:40.285Z,0.43
2023-03-10T14:33:15.335Z,0.97
2023-03-10T14:35:43.170Z,1.60
2023-03-10T14:38:11.992Z,1.10
2023-03-10T14:40:45.441Z,1.07
2023-03-10T14:43:27.372Z,1.17
2023-03-10T14:45:56.341Z,1.93
2023-03-10T14:48:28.147Z,1.57
2023-03-10T14:50:57.305Z,1.53
2023-03-10T14:53:25.601Z,1.40
2023-03-10T14:55:58.139Z,1.50
2023-03-10T14:58:30.107Z,1.60
2023-03-10T15:00:56.754Z,0.87
2023-03-10T15:03:28.056Z,1.67
2023-03-10T15:05:54.653Z,2.07
2023-03-10T15:08:24.499Z,1.63
2023-03-10T15:10:52.095Z,1.23
2023-03-10T15:13:23.760Z,2.30
2023-03-10T15:15:50.945Z,3.33
2023-03-10T15:18:20.352Z,2.60
2023-03-10T15:20:47.386Z,3.73
2023-03-10T15:23:17.635Z,1.80
2023-03-10T15:25:46.068Z,2.23
2023-03-10T15:28:13.505Z,2.77
2023-03-10T15:30:42.377Z,1.83
2023-03-10T15:33:11.419Z,2.03
2023-03-10T15:35:39.003Z,1.37
2023-03-10T15:38:05.618Z,2.23
2023-03-10T15:40:33.998Z,1.07
2023-03-10T15:43:01.403Z,1.17
2023-03-10T15:45:29.968Z,0.70
2023-03-10T15:47:57.663Z,1.37
2023-03-10T15:50:30.169Z,1.73
2023-03-10T15:52:58.621Z,1.57
2023-03-10T15:55:27.023Z,1.23
2023-03-10T15:57:54.001Z,1.60
2023-03-10T16:00:22.937Z,0.83
2023-03-10T16:02:50.212Z,1.20
2023-03-10T16:05:17.978Z,1.57
2023-03-10T16:07:44.619Z,1.60
2023-03-10T16:10:13.146Z,1.43
2023-03-10T16:12:41.988Z,1.20
2023-03-10T16:15:09.541Z,1.50
2023-03-10T16:17:36.528Z,1.57
2023-03-10T16:20:07.421Z,1.50
2023-03-10T16:22:34.114Z,1.13
2023-03-10T16:25:01.030Z,1.53
2023-03-10T16:27:29.825Z,2.00
2023-03-10T16:29:58.249Z,1.93
2023-03-10T16:32:24.907Z,2.27
2023-03-10T16:34:54.282Z,3.17
2023-03-10T16:37:25.045Z,2.20
2023-03-10T16:39:53.981Z,1.20
2023-03-10T16:42:21.352Z,2.50
2023-03-10T16:44:50.634Z,2.93
2023-03-10T16:47:18.069Z,2.60
2023-03-10T16:49:44.760Z,2.00
2023-03-10T16:52:11.311Z,2.33
2023-03-10T16:54:38.153Z,1.87
2023-03-10T16:57:06.652Z,1.77
2023-03-10T16:59:35.726Z,2.27
2023-03-10T17:02:05.003Z,1.57
2023-03-10T17:04:34.623Z,1.47
2023-03-10T17:07:01.212Z,1.40
2023-03-10T17:09:27.770Z,1.93
2023-03-10T17:11:55.468Z,1.27
2023-03-10T17:14:23.095Z,1.13
2023-03-10T17:16:49.819Z,0.83
2023-03-10T17:19:26.194Z,1.07
2023-03-10T17:21:56.178Z,0.60
2023-03-10T17:24:23.575Z,0.77
2023-03-10T17:26:50.483Z,0.77
2023-03-10T17:29:17.588Z,1.00
2023-03-10T17:31:48.948Z,0.97
2023-03-10T17:34:19.430Z,1.10
2023-03-10T17:36:46.817Z,1.10
2023-03-10T17:39:22.310Z,1.27
2023-03-10T17:41:51.704Z,1.13
2023-03-10T17:44:18.698Z,1.20
2023-03-10T17:46:47.865Z,0.93
2023-03-10T17:49:15.414Z,1.23
2023-03-10T17:51:44.342Z,1.10
2023-03-10T17:54:21.793Z,1.47
2023-03-10T17:56:49.659Z,0.80
2023-03-10T17:59:16.656Z,0.67
2023-03-10T18:01:44.162Z,0.90
2023-03-10T18:04:11.008Z,1.03
2023-03-10T18:06:37.804Z,1.03
2023-03-10T18:09:09.630Z,0.80
2023-03-10T18:11:38.940Z,0.80
2023-03-10T18:14:06.225Z,0.83
2023-03-10T18:16:38.134Z,0.57
2023-03-10T18:19:10.541Z,0.90
2023-03-10T18:21:37.466Z,1.40
2023-03-10T18:24:04.401Z,1.60
2023-03-10T18:26:33.854Z,1.67
2023-03-10T18:29:00.701Z,2.10
2023-03-10T18:31:30.488Z,2.83
2023-03-10T18:33:57.335Z,2.87
2023-03-10T18:36:28.756Z,2.20
2023-03-10T18:38:55.778Z,1.53
2023-03-10T18:41:25.145Z,1.10
2023-03-10T18:43:52.666Z,1.30
2023-03-10T18:46:20.437Z,0.90
2023-03-10T18:48:47.216Z,1.10
2023-03-10T18:51:14.168Z,0.63
2023-03-10T18:53:41.032Z,1.08
2023-03-10T18:56:07.985Z,0.93
2023-03-10T18:58:34.978Z,1.17
2023-03-10T19:01:01.602Z,1.10
2023-03-10T19:03:30.976Z,0.70
2023-03-10T19:05:57.940Z,1.40
2023-03-10T19:08:25.673Z,1.80
2023-03-10T19:10:59.516Z,1.37
2023-03-10T19:13:27.821Z,1.30
2023-03-10T19:15:55.286Z,1.00
2023-03-10T19:18:24.723Z,0.97
2023-03-10T19:20:51.361Z,1.20
2023-03-10T19:23:18.128Z,1.40
2023-03-10T19:25:47.189Z,1.37
2023-03-10T19:28:13.810Z,1.23
2023-03-10T19:30:42.959Z,1.10
2023-03-10T19:33:12.304Z,0.80
2023-03-10T19:35:39.056Z,0.80
2023-03-10T19:38:06.192Z,0.90
2023-03-10T19:40:33.335Z,1.13
2023-03-10T19:43:02.757Z,0.80
2023-03-10T19:45:29.444Z,1.10
2023-03-10T19:47:58.009Z,0.80
2023-03-10T19:50:25.413Z,1.00
2023-03-10T19:52:52.015Z,0.80
2023-03-10T19:55:26.618Z,1.00
2023-03-10T19:57:56.189Z,1.00
2023-03-10T20:00:31.392Z,1.00
2023-03-10T20:03:00.938Z,0.80
2023-03-10T20:05:27.608Z,1.40
2023-03-10T20:07:54.458Z,1.30
2023-03-10T20:10:23.454Z,1.10
2023-03-10T20:12:52.439Z,1.20
2023-03-10T20:15:19.194Z,1.20
2023-03-10T20:17:46.196Z,0.90
2023-03-10T20:20:15.222Z,1.92
2023-03-10T20:22:45.305Z,1.17
2023-03-10T20:25:14.247Z,1.03
2023-03-10T20:27:43.036Z,1.00
2023-03-10T20:30:15.784Z,1.27
2023-03-10T20:32:46.025Z,1.20
2023-03-10T20:35:15.663Z,1.67
2023-03-10T20:37:42.433Z,1.50
2023-03-10T20:40:11.672Z,1.37
2023-03-10T20:42:38.415Z,1.87
2023-03-10T20:45:07.265Z,1.50
2023-03-10T20:47:34.233Z,1.30
2023-03-10T20:50:03.969Z,1.10
2023-03-10T20:52:34.424Z,1.43
2023-03-10T20:55:01.549Z,1.80
2023-03-10T20:57:28.570Z,1.50
2023-03-10T20:59:58.224Z,1.40
2023-03-10T21:02:24.872Z,1.30
2023-03-10T21:04:51.729Z,1.87
2023-03-10T21:07:18.417Z,1.67
2023-03-10T21:09:45.286Z,1.87
2023-03-10T21:12:13.723Z,2.50
2023-03-10T21:14:40.383Z,1.83
2023-03-10T21:17:09.273Z,1.63
2023-03-10T21:19:35.937Z,1.67
2023-03-10T21:22:03.549Z,1.33
2023-03-10T21:24:30.436Z,1.70
2023-03-10T21:27:01.618Z,1.57
2023-03-10T21:29:28.353Z,1.50
2023-03-10T21:31:55.017Z,1.30
2023-03-10T21:34:21.722Z,1.60
2023-03-10T21:36:49.189Z,1.83
2023-03-10T21:39:21.025Z,1.50
2023-03-10T21:41:47.866Z,1.60
2023-03-10T21:44:16.550Z,1.60
2023-03-10T21:46:43.244Z,1.90
2023-03-10T21:49:09.972Z,1.77
2023-03-10T21:51:36.887Z,1.67
2023-03-10T21:54:05.100Z,1.83
2023-03-10T21:56:32.143Z,1.30
2023-03-10T21:58:58.955Z,1.50
2023-03-10T22:01:30.600Z,1.90
2023-03-10T22:03:57.316Z,1.63
2023-03-10T22:06:23.914Z,1.20
2023-03-10T22:08:51.087Z,1.50
2023-03-10T22:11:17.919Z,1.80
2023-03-10T22:13:44.782Z,1.27
2023-03-10T22:16:15.933Z,1.20
2023-03-10T22:18:43.349Z,1.27
2023-03-10T22:21:10.172Z,1.50
2023-03-10T22:23:39.083Z,0.90
2023-03-10T22:26:06.021Z,1.90
2023-03-10T22:28:32.883Z,1.50
2023-03-10T22:30:59.615Z,1.33
2023-03-10T22:33:26.342Z,1.53
2023-03-10T22:35:53.052Z,1.23
2023-03-10T22:38:20.564Z,1.37
2023-03-10T22:40:48.350Z,1.43
2023-03-10T22:43:15.379Z,1.70
2023-03-10T22:45:42.107Z,1.30
2023-03-10T22:48:08.878Z,1.30
2023-03-10T22:50:39.032Z,1.77
2023-03-10T22:53:13.138Z,1.33
2023-03-10T22:55:42.640Z,1.60
2023-03-10T22:58:11.135Z,1.20
2023-03-10T23:00:39.395Z,1.50
2023-03-10T23:03:07.540Z,1.53
2023-03-10T23:05:34.246Z,1.13
2023-03-10T23:08:03.344Z,1.30
2023-03-10T23:10:32.271Z,1.33
2023-03-10T23:13:00.777Z,1.80
2023-03-10T23:15:31.678Z,1.23
2023-03-10T23:17:58.381Z,1.00
2023-03-10T23:20:27.885Z,1.03
2023-03-10T23:22:57.017Z,1.10
2023-03-10T23:25:27.332Z,1.30
2023-03-10T23:27:54.500Z,1.10
2023-03-10T23:30:21.406Z,1.63
2023-03-10T23:32:50.494Z,1.20
2023-03-10T23:35:23.933Z,1.03
2023-03-10T23:37:52.975Z,1.30
2023-03-10T23:40:24.710Z,0.90
2023-03-10T23:42:58.276Z,0.90
2023-03-10T23:45:31.305Z,1.30
2023-03-10T23:48:01.562Z,1.33
2023-03-10T23:50:30.151Z,1.10
2023-03-10T23:52:57.536Z,0.93
2023-03-10T23:55:33.638Z,1.13
2023-03-10T23:58:01.193Z,1.10
